Terminal Aerodrome Forecast
Issued by NWS St Louis, MO

Home | Current Version | Previous Version | Text Only | Print | Product List | Glossary On
Versions: 1 2 3 4 5 6 7 8 9 10 11 12 13 14 15 16 17 18 19 20 21 22 23 24 25 26 27
000
FTUS43 KLSX 130000 AAA
TAFSTL
TAF AMD
KSTL 130014Z 1300/1406 36008KT P6SM OVC024
      TEMPO 1300/1303 4SM -RA SCT008 OVC012
     FM131200 34008KT P6SM SCT030
     FM131500 04008KT P6SM SKC
     FM140500 10006KT P6SM SKC=

USA.gov is the U.S. government's official web portal to all federal, state and local government web resources and services.